Time;durP1;ratioP1;P1;durP2;ratioP2;P2;SDS_P1;SDS_P2;PMS_P1;PMS_P2;Temp;Humidity;BMP_temperature;BMP_pressure;BME280_temperature;BME280_humidity;BME280_pressure;Samples;Min_cycle;Max_cycle;Signal;HPM_P1;HPM_P2
2021/09/19 00:00:00;;;;;;;3.00;2.37;;;;;;;14.37;79.66;98876.86;1689781;83;21059;-76
2021/09/19 00:02:27;;;;;;;4.92;2.85;;;;;;;14.32;79.82;98879.61;1677652;85;21022;-71
2021/09/19 00:04:53;;;;;;;2.85;2.45;;;;;;;14.29;79.96;98876.16;1680969;85;21154;-74
2021/09/19 00:07:20;;;;;;;3.50;3.20;;;;;;;14.25;80.20;98875.11;1668243;84;21483;-74
2021/09/19 00:09:46;;;;;;;3.30;3.00;;;;;;;14.20;80.78;98873.28;1700332;84;21040;-71
2021/09/19 00:12:14;;;;;;;7.22;2.85;;;;;;;14.17;81.18;98879.29;1704299;83;21481;-71
2021/09/19 00:14:43;;;;;;;2.90;2.67;;;;;;;14.15;81.48;98881.47;1717828;83;21054;-72
2021/09/19 00:17:10;;;;;;;2.85;2.65;;;;;;;14.15;82.09;98884.17;1699690;84;21918;-73
2021/09/19 00:19:37;;;;;;;3.12;2.80;;;;;;;14.15;82.54;98883.39;1684466;84;20947;-74
2021/09/19 00:22:04;;;;;;;4.03;3.70;;;;;;;14.15;82.84;98890.94;1696854;84;20992;-73
2021/09/19 00:24:31;;;;;;;3.60;3.30;;;;;;;14.14;82.87;98891.25;1692490;84;21107;-73
2021/09/19 00:27:00;;;;;;;3.83;3.45;;;;;;;14.13;82.78;98888.28;1714996;83;21488;-71
2021/09/19 00:29:26;;;;;;;5.17;2.95;;;;;;;14.14;82.91;98887.19;1725646;83;21097;-71
2021/09/19 00:31:52;;;;;;;3.77;3.45;;;;;;;14.12;82.93;98882.61;1675230;84;21533;-69
2021/09/19 00:34:19;;;;;;;3.77;3.40;;;;;;;14.11;83.48;98893.16;1697882;83;21047;-74
2021/09/19 00:36:46;;;;;;;3.75;3.45;;;;;;;14.08;84.05;98882.95;1725025;83;21123;-72
2021/09/19 00:39:12;;;;;;;4.22;3.80;;;;;;;14.01;84.15;98883.30;1705038;83;20992;-72
2021/09/19 00:41:40;;;;;;;3.70;3.37;;;;;;;13.97;84.59;98880.92;1725708;83;21095;-71
2021/09/19 00:44:08;;;;;;;4.62;4.22;;;;;;;13.98;84.87;98877.94;1725748;83;21537;-70
2021/09/19 00:46:36;;;;;;;3.72;3.17;;;;;;;14.03;84.97;98883.02;1725885;83;21060;-71
2021/09/19 00:49:03;;;;;;;5.72;3.90;;;;;;;14.02;85.30;98873.29;1725842;82;21016;-72
2021/09/19 00:51:53;;;;;;;4.50;4.05;;;;;;;14.00;85.33;98876.84;1704554;83;21525;-68
2021/09/19 00:54:21;;;;;;;4.15;3.55;;;;;;;13.93;84.95;98878.55;1643732;86;21238;-72
2021/09/19 00:56:54;;;;;;;3.92;3.45;;;;;;;13.98;85.17;98881.99;1654511;85;20982;-69
2021/09/19 00:59:23;;;;;;;4.45;3.92;;;;;;;14.06;84.92;98881.88;1654567;86;21051;-69
2021/09/19 01:01:51;;;;;;;7.87;4.12;;;;;;;14.05;84.80;98877.59;1629375;87;21023;-71
2021/09/19 01:04:20;;;;;;;4.85;4.10;;;;;;;14.05;84.88;98880.30;1654534;86;21547;-67
2021/09/19 01:06:47;;;;;;;4.00;3.60;;;;;;;14.03;84.90;98882.47;1630807;87;21927;-69
2021/09/19 01:09:16;;;;;;;4.25;3.60;;;;;;;14.06;84.99;98881.06;1632016;86;21117;-70
2021/09/19 01:11:43;;;;;;;3.58;2.92;;;;;;;14.14;84.42;98879.08;1627811;88;21045;-77
2021/09/19 01:14:10;;;;;;;5.35;2.80;;;;;;;14.19;83.25;98885.77;1627696;87;21019;-68
2021/09/19 01:16:38;;;;;;;3.58;3.27;;;;;;;14.23;82.52;98886.23;1628059;87;21014;-71
2021/09/19 01:19:06;;;;;;;2.72;2.52;;;;;;;14.31;81.95;98886.11;1621781;88;21562;-68
2021/09/19 01:21:33;;;;;;;3.77;3.27;;;;;;;14.36;81.07;98885.52;1602207;89;21594;-69
2021/09/19 01:24:03;;;;;;;6.92;3.33;;;;;;;14.32;80.51;98891.78;1602126;89;21034;-69
2021/09/19 01:26:32;;;;;;;3.55;2.92;;;;;;;14.27;80.48;98883.74;1618193;88;20962;-68
2021/09/19 01:28:58;;;;;;;2.72;2.42;;;;;;;14.27;80.48;98889.96;1576964;91;21139;-68
2021/09/19 01:31:25;;;;;;;3.67;3.05;;;;;;;14.26;80.77;98895.11;1616441;88;21450;-67
2021/09/19 01:33:54;;;;;;;19.37;13.40;;;;;;;14.24;80.68;98889.20;1627936;87;20967;-69
2021/09/19 01:36:20;;;;;;;7.45;5.42;;;;;;;14.25;80.42;98886.73;1602233;89;21537;-69
2021/09/19 01:38:46;;;;;;;6.92;4.40;;;;;;;14.25;80.46;98882.67;1601821;89;21068;-68
2021/09/19 01:41:20;;;;;;;3.75;3.27;;;;;;;14.24;80.57;98878.39;1596897;89;20974;-70
2021/09/19 01:43:48;;;;;;;3.65;3.35;;;;;;;14.29;80.78;98877.51;1623315;88;21175;-69
2021/09/19 01:46:15;;;;;;;3.72;3.02;;;;;;;14.35;80.81;98878.47;1626341;88;21516;-68
2021/09/19 01:48:42;;;;;;;4.17;3.72;;;;;;;14.37;80.72;98870.91;1627753;87;20990;-67
2021/09/19 01:51:09;;;;;;;3.67;3.33;;;;;;;14.36;80.80;98872.00;1621309;88;21035;-68
2021/09/19 01:53:38;;;;;;;3.65;3.33;;;;;;;14.31;80.87;98867.17;1642183;85;21075;-68
2021/09/19 01:56:07;;;;;;;5.62;4.00;;;;;;;14.29;81.18;98863.98;1651662;86;22677;-69
2021/09/19 01:58:48;;;;;;;5.22;3.50;;;;;;;14.30;81.43;98858.25;1651784;86;20976;-70
2021/09/19 02:01:21;;;;;;;3.70;3.40;;;;;;;14.36;81.36;98857.66;1651046;86;22229;-68
2021/09/19 02:03:46;;;;;;;4.28;3.72;;;;;;;14.35;81.57;98859.53;1634078;86;21576;-68
2021/09/19 02:06:13;;;;;;;4.33;3.40;;;;;;;14.35;81.76;98866.84;1642492;86;21076;-67
2021/09/19 02:08:41;;;;;;;6.37;3.00;;;;;;;14.39;81.56;98866.53;1651687;86;20988;-70
2021/09/19 02:11:10;;;;;;;4.05;3.30;;;;;;;14.40;81.10;98861.38;1651555;86;21020;-68
2021/09/19 02:13:40;;;;;;;2.70;2.35;;;;;;;14.35;80.94;98869.55;1650691;86;21032;-67
2021/09/19 02:16:06;;;;;;;3.70;3.40;;;;;;;14.25;81.46;98871.05;1632329;86;21071;-68
2021/09/19 02:18:35;;;;;;;3.70;3.10;;;;;;;14.19;82.22;98868.19;1651616;86;21068;-68
2021/09/19 02:21:05;;;;;;;5.20;3.17;;;;;;;14.14;82.75;98869.06;1651447;86;21787;-68
2021/09/19 02:23:31;;;;;;;3.60;3.30;;;;;;;14.10;83.11;98873.43;1608262;88;21641;-68
2021/09/19 02:25:58;;;;;;;3.92;3.62;;;;;;;14.09;84.11;98875.09;1581844;89;21109;-68
2021/09/19 02:28:26;;;;;;;4.53;3.90;;;;;;;14.06;84.84;98870.25;1602718;89;21045;-68
2021/09/19 02:30:52;;;;;;;4.70;4.28;;;;;;;14.03;85.26;98869.50;1651627;86;21135;-67
2021/09/19 02:33:20;;;;;;;4.97;3.10;;;;;;;13.98;85.35;98862.27;1629365;86;21013;-69
2021/09/19 02:35:47;;;;;;;3.75;3.40;;;;;;;13.99;85.22;98857.12;1604993;88;21100;-67
2021/09/19 02:38:13;;;;;;;3.37;3.08;;;;;;;13.98;85.05;98867.67;1624008;86;20977;-67
2021/09/19 02:40:41;;;;;;;4.62;4.22;;;;;;;13.96;85.41;98869.84;1623689;88;21593;-69
2021/09/19 02:43:08;;;;;;;5.20;4.55;;;;;;;13.94;86.00;98871.52;1643205;86;21569;-69
2021/09/19 02:45:35;;;;;;;5.53;4.20;;;;;;;14.00;86.34;98870.09;1651709;86;21147;-68
2021/09/19 02:48:01;;;;;;;3.65;3.30;;;;;;;14.02;86.17;98873.29;1651265;86;21047;-69
2021/09/19 02:50:28;;;;;;;3.42;3.12;;;;;;;14.04;86.04;98867.05;1632616;86;21644;-68
2021/09/19 02:52:54;;;;;;;3.33;3.02;;;;;;;14.07;85.13;98859.70;1629425;88;21086;-69
2021/09/19 02:55:21;;;;;;;3.90;3.60;;;;;;;14.15;84.79;98868.52;1656127;86;21052;-69
2021/09/19 02:57:47;;;;;;;4.75;4.35;;;;;;;14.14;84.78;98858.80;1656011;86;21808;-70
2021/09/19 03:00:17;;;;;;;4.45;4.05;;;;;;;14.10;85.00;98865.31;1655931;86;20984;-69
2021/09/19 03:02:44;;;;;;;3.17;2.98;;;;;;;14.06;85.18;98864.84;1655863;86;21101;-67
2021/09/19 03:05:11;;;;;;;5.17;4.15;;;;;;;14.02;85.94;98861.12;1634534;86;21144;-67
2021/09/19 03:07:37;;;;;;;3.83;3.52;;;;;;;13.98;86.44;98866.32;1655870;85;21071;-68
2021/09/19 03:10:05;;;;;;;5.50;4.08;;;;;;;14.01;86.29;98869.78;1655828;86;21139;-68
2021/09/19 03:12:32;;;;;;;5.62;4.20;;;;;;;14.10;85.95;98872.66;1634145;86;21020;-69
2021/09/19 03:15:00;;;;;;;4.08;3.72;;;;;;;14.18;85.38;98872.79;1655939;86;20984;-68
2021/09/19 03:17:26;;;;;;;4.70;4.20;;;;;;;14.16;84.95;98871.45;1655985;86;21060;-70
2021/09/19 03:19:55;;;;;;;5.45;4.28;;;;;;;14.12;85.04;98872.60;1656181;86;21019;-68
2021/09/19 03:22:21;;;;;;;4.55;4.15;;;;;;;14.13;85.15;98870.16;1625800;88;21061;-67
2021/09/19 03:24:49;;;;;;;6.10;3.95;;;;;;;14.15;85.20;98872.00;1627927;88;21035;-68
2021/09/19 03:27:16;;;;;;;3.25;3.05;;;;;;;14.18;84.95;98866.58;1615088;86;21052;-70
2021/09/19 03:29:44;;;;;;;5.47;3.80;;;;;;;14.17;84.74;98869.02;1656139;86;21131;-69
2021/09/19 03:32:10;;;;;;;4.08;3.67;;;;;;;14.06;84.68;98868.36;1649269;86;21636;-68
2021/09/19 03:34:37;;;;;;;3.87;3.40;;;;;;;14.05;84.85;98870.83;1627775;88;21130;-68
2021/09/19 03:37:06;;;;;;;5.55;5.00;;;;;;;14.06;84.56;98869.70;1627880;87;21024;-69
2021/09/19 03:39:32;;;;;;;4.42;3.42;;;;;;;14.04;84.21;98868.41;1627836;88;21044;-69
2021/09/19 03:42:01;;;;;;;5.70;5.20;;;;;;;14.02;83.95;98869.23;1632608;86;21044;-68
2021/09/19 03:44:27;;;;;;;3.72;3.42;;;;;;;13.96;83.66;98864.44;1656092;86;21028;-68
2021/09/19 03:46:55;;;;;;;5.15;3.17;;;;;;;13.90;83.84;98869.14;1655941;86;21075;-68
2021/09/19 03:49:21;;;;;;;2.67;2.42;;;;;;;13.84;84.27;98870.30;1655835;86;21024;-68
2021/09/19 03:51:49;;;;;;;4.78;2.70;;;;;;;13.89;84.39;98872.13;1633892;86;21055;-69
2021/09/19 03:54:16;;;;;;;3.58;2.52;;;;;;;13.93;83.80;98873.95;1628493;86;21076;-72
2021/09/19 03:56:43;;;;;;;2.70;2.50;;;;;;;13.94;83.12;98872.86;1647055;86;21640;-69
2021/09/19 03:59:11;;;;;;;2.45;2.25;;;;;;;13.90;83.24;98868.33;1651930;86;20977;-70
2021/09/19 04:01:38;;;;;;;3.00;2.80;;;;;;;13.80;82.77;98870.63;1651609;86;20973;-70
2021/09/19 04:04:06;;;;;;;2.22;2.02;;;;;;;13.79;83.20;98876.31;1624797;86;21541;-68
2021/09/19 04:06:34;;;;;;;2.60;2.40;;;;;;;13.74;83.05;98883.94;1629638;85;21170;-69
2021/09/19 04:09:02;;;;;;;2.95;2.33;;;;;;;13.70;83.11;98884.27;1651750;86;20945;-71
2021/09/19 04:11:28;;;;;;;2.62;2.27;;;;;;;13.63;83.44;98887.05;1627689;88;21175;-68
2021/09/19 04:13:55;;;;;;;2.62;2.42;;;;;;;13.65;83.64;98887.03;1626871;86;21087;-69
2021/09/19 04:16:21;;;;;;;2.80;2.60;;;;;;;13.66;83.58;98891.35;1623796;88;20976;-69
2021/09/19 04:18:49;;;;;;;2.95;2.65;;;;;;;13.71;83.47;98886.42;1623739;88;22255;-70
2021/09/19 04:21:17;;;;;;;4.12;2.77;;;;;;;13.70;83.35;98892.38;1623918;87;21007;-69
2021/09/19 04:23:45;;;;;;;2.95;2.67;;;;;;;13.64;83.37;98888.12;1645986;86;21000;-70
2021/09/19 04:26:11;;;;;;;5.37;3.25;;;;;;;13.61;83.48;98884.66;1651545;86;21088;-72
2021/09/19 04:28:39;;;;;;;5.20;4.67;;;;;;;13.58;83.71;98893.86;1651729;86;21041;-70
2021/09/19 04:31:07;;;;;;;4.70;3.80;;;;;;;13.56;84.08;98887.41;1651694;86;21087;-69
2021/09/19 04:33:35;;;;;;;4.83;4.12;;;;;;;13.61;84.45;98890.60;1633752;86;21036;-70
2021/09/19 04:36:02;;;;;;;27.95;24.98;;;;;;;13.62;84.45;98895.70;1651535;86;21243;-69
2021/09/19 04:38:29;;;;;;;7.08;6.37;;;;;;;13.53;84.67;98894.19;1608396;88;21579;-70
2021/09/19 04:40:55;;;;;;;5.17;4.30;;;;;;;13.44;84.91;98894.56;1632530;86;21128;-69
2021/09/19 04:43:22;;;;;;;4.67;3.37;;;;;;;13.33;85.13;98895.77;1651036;86;21115;-70
2021/09/19 04:45:49;;;;;;;5.00;3.70;;;;;;;13.24;85.38;98889.92;1651435;86;21087;-69
2021/09/19 04:48:16;;;;;;;3.58;3.27;;;;;;;13.15;85.64;98887.05;1632387;86;21341;-68
2021/09/19 04:50:42;;;;;;;3.22;2.92;;;;;;;13.13;85.99;98887.91;1630285;85;23716;-69
2021/09/19 04:53:08;;;;;;;4.55;4.15;;;;;;;13.15;86.46;98890.30;1651300;86;21000;-68
2021/09/19 04:55:35;;;;;;;4.83;4.25;;;;;;;13.12;86.95;98873.33;1634518;86;21038;-72
2021/09/19 04:58:02;;;;;;;7.60;4.42;;;;;;;13.20;87.66;98877.55;1658011;86;21006;-72
2021/09/19 05:00:29;;;;;;;5.83;3.75;;;;;;;13.18;88.05;98875.70;1657975;86;21919;-70
2021/09/19 05:02:56;;;;;;;9.80;5.60;;;;;;;13.14;89.14;98871.94;1633693;86;20987;-72
2021/09/19 05:05:23;;;;;;;6.33;5.00;;;;;;;13.05;89.79;98865.53;1656388;86;21094;-79
2021/09/19 05:07:51;;;;;;;4.58;4.15;;;;;;;13.01;90.38;98869.35;1629083;86;21054;-68
2021/09/19 05:10:18;;;;;;;3.33;3.02;;;;;;;12.97;91.04;98879.11;1631152;86;21640;-69
2021/09/19 05:12:45;;;;;;;2.80;2.60;;;;;;;12.94;91.33;98875.65;1653391;86;21844;-69
2021/09/19 05:15:12;;;;;;;3.00;2.70;;;;;;;12.91;91.36;98877.55;1656405;86;20978;-71
2021/09/19 05:17:39;;;;;;;4.58;2.70;;;;;;;12.88;91.43;98881.37;1633655;86;21027;-70
2021/09/19 05:20:07;;;;;;;5.60;3.10;;;;;;;12.84;91.58;98885.19;1656967;86;21059;-69
2021/09/19 05:22:34;;;;;;;4.83;3.35;;;;;;;12.79;91.97;98881.72;1653212;86;20991;-70
2021/09/19 05:25:00;;;;;;;3.60;2.87;;;;;;;12.80;92.52;98890.89;1657788;85;21113;-71
2021/09/19 05:27:26;;;;;;;3.00;2.70;;;;;;;12.83;92.87;98883.57;1657644;86;20931;-70
2021/09/19 05:29:53;;;;;;;3.72;3.42;;;;;;;12.88;93.30;98880.02;1657739;86;21046;-69
2021/09/19 05:32:19;;;;;;;4.33;3.65;;;;;;;12.88;93.75;98884.06;1633849;86;21046;-69
2021/09/19 05:34:46;;;;;;;5.05;4.10;;;;;;;12.85;94.19;98883.30;1633201;86;21057;-69
2021/09/19 05:37:14;;;;;;;14.18;12.70;;;;;;;12.88;94.56;98885.41;1656643;86;23010;-71
2021/09/19 05:39:41;;;;;;;7.22;5.58;;;;;;;12.93;95.02;98879.97;1633228;86;20979;-71
2021/09/19 05:42:08;;;;;;;4.25;3.87;;;;;;;12.98;95.54;98886.13;1656111;86;21021;-70
2021/09/19 05:44:34;;;;;;;6.90;4.78;;;;;;;13.01;95.91;98881.50;1634585;86;21551;-71
2021/09/19 05:47:01;;;;;;;8.20;7.37;;;;;;;13.06;95.97;98889.55;1657959;86;21033;-72
2021/09/19 05:49:28;;;;;;;8.13;6.62;;;;;;;13.08;96.16;98885.22;1658075;86;21226;-69
2021/09/19 05:51:56;;;;;;;5.30;4.75;;;;;;;13.10;96.28;98878.44;1657079;86;20970;-71
2021/09/19 05:54:24;;;;;;;5.65;5.05;;;;;;;13.15;96.47;98879.50;1653703;86;21057;-70
2021/09/19 05:56:50;;;;;;;6.67;6.03;;;;;;;13.17;96.42;98881.37;1605596;88;21516;-71
2021/09/19 05:59:17;;;;;;;10.63;5.47;;;;;;;13.19;96.83;98879.98;1631202;87;21080;-73
2021/09/19 06:01:45;;;;;;;5.12;4.37;;;;;;;13.24;97.08;98884.52;1647442;86;21048;-71
2021/09/19 06:04:11;;;;;;;5.62;4.87;;;;;;;13.32;97.30;98873.12;1605211;88;21078;-70
2021/09/19 06:06:37;;;;;;;12.53;5.90;;;;;;;13.37;97.25;98871.70;1641501;85;21114;-68
2021/09/19 06:09:05;;;;;;;7.67;5.00;;;;;;;13.40;97.46;98878.68;1651685;86;21036;-70
2021/09/19 06:11:32;;;;;;;7.97;5.67;;;;;;;13.39;97.56;98877.06;1632496;86;21083;-70
2021/09/19 06:14:00;;;;;;;5.87;5.30;;;;;;;13.40;97.38;98875.17;1625172;88;20960;-79
2021/09/19 06:16:27;;;;;;;7.45;6.60;;;;;;;13.43;97.57;98872.69;1625055;88;21526;-69
2021/09/19 06:18:55;;;;;;;5.42;5.03;;;;;;;13.44;97.58;98874.84;1633625;86;21023;-70
2021/09/19 06:21:21;;;;;;;6.47;4.97;;;;;;;13.46;97.56;98876.73;1651369;86;21562;-71
2021/09/19 06:23:48;;;;;;;6.37;5.00;;;;;;;13.48;97.04;98883.98;1632163;86;21195;-70
2021/09/19 06:26:14;;;;;;;7.78;5.87;;;;;;;13.44;96.53;98877.55;1651490;86;21352;-70
2021/09/19 06:28:42;;;;;;;4.85;4.45;;;;;;;13.41;96.27;98877.59;1651781;86;21032;-70
2021/09/19 06:31:10;;;;;;;8.00;7.20;;;;;;;13.44;96.44;98874.84;1651589;85;21585;-70
2021/09/19 06:33:38;;;;;;;5.45;4.95;;;;;;;13.45;96.14;98882.67;1632110;86;21043;-70
2021/09/19 06:36:06;;;;;;;5.37;4.87;;;;;;;13.45;95.88;98886.73;1651447;86;21080;-69
2021/09/19 06:38:32;;;;;;;5.22;4.83;;;;;;;13.43;95.44;98888.90;1650389;86;21138;-75
2021/09/19 06:41:00;;;;;;;6.25;5.00;;;;;;;13.47;95.74;98886.45;1651461;86;21026;-70
2021/09/19 06:43:29;;;;;;;6.15;5.62;;;;;;;13.48;95.75;98878.58;1651605;86;21637;-73
2021/09/19 06:45:55;;;;;;;6.45;4.00;;;;;;;13.51;95.72;98876.12;1650128;86;21092;-71
2021/09/19 06:48:23;;;;;;;4.30;3.27;;;;;;;13.54;95.21;98882.84;1600571;89;21523;-72
2021/09/19 06:50:49;;;;;;;2.47;2.35;;;;;;;13.53;94.78;98875.81;1650372;86;21152;-73
2021/09/19 06:53:16;;;;;;;1.77;1.67;;;;;;;13.52;94.30;98870.96;1651533;86;20984;-70
2021/09/19 06:55:42;;;;;;;3.00;2.80;;;;;;;13.54;93.87;98874.73;1628500;87;21593;-71
2021/09/19 06:58:09;;;;;;;5.08;2.80;;;;;;;13.52;93.77;98870.18;1629214;87;21044;-72
2021/09/19 07:00:35;;;;;;;2.67;2.47;;;;;;;13.52;94.39;98872.88;1648805;87;21132;-72
2021/09/19 07:03:02;;;;;;;4.03;3.35;;;;;;;13.54;94.40;98874.73;1648425;86;22311;-69
2021/09/19 07:05:28;;;;;;;3.62;3.25;;;;;;;13.57;94.34;98867.97;1652865;84;21087;-70
2021/09/19 07:07:55;;;;;;;3.20;2.90;;;;;;;13.56;94.16;98872.56;1638578;87;21153;-70
2021/09/19 07:10:23;;;;;;;3.15;2.85;;;;;;;13.50;94.07;98870.46;1647215;87;21079;-72
2021/09/19 07:12:50;;;;;;;3.95;2.95;;;;;;;13.47;94.21;98868.89;1629283;87;21119;-70
2021/09/19 07:15:18;;;;;;;2.58;2.27;;;;;;;13.48;94.34;98864.53;1630965;87;21012;-72
2021/09/19 07:17:46;;;;;;;9.65;7.95;;;;;;;13.50;94.55;98869.66;1620680;88;21015;-70
2021/09/19 07:20:12;;;;;;;4.62;4.00;;;;;;;13.52;95.00;98864.20;1620541;87;21619;-69
2021/09/19 07:22:40;;;;;;;3.67;3.15;;;;;;;13.57;95.54;98869.31;1648323;87;21267;-72
2021/09/19 07:25:10;;;;;;;5.22;4.72;;;;;;;13.61;95.77;98870.34;1628273;87;21136;-72
2021/09/19 07:27:37;;;;;;;9.33;7.53;;;;;;;13.66;95.73;98872.44;1648489;87;22739;-72
2021/09/19 07:30:06;;;;;;;4.03;3.70;;;;;;;13.72;95.84;98872.61;1628731;87;21556;-72
2021/09/19 07:32:34;;;;;;;3.45;3.15;;;;;;;13.76;95.89;98868.80;1648889;87;21561;-73
2021/09/19 07:35:03;;;;;;;3.52;2.83;;;;;;;13.81;95.92;98866.03;1648377;86;21064;-73
2021/09/19 07:37:31;;;;;;;2.75;2.55;;;;;;;13.86;96.02;98865.96;1629056;87;21635;-73
2021/09/19 07:39:59;;;;;;;3.50;3.05;;;;;;;13.91;96.28;98864.51;1647676;87;21200;-70
2021/09/19 07:42:26;;;;;;;3.17;2.90;;;;;;;13.95;95.09;98862.86;1578303;89;21097;-72
2021/09/19 07:44:54;;;;;;;3.65;3.35;;;;;;;14.02;94.87;98861.93;1674705;85;21731;-71
2021/09/19 07:47:20;;;;;;;5.83;4.33;;;;;;;14.13;94.54;98863.40;1647813;85;21108;-74
2021/09/19 07:49:47;;;;;;;3.20;2.92;;;;;;;14.20;94.24;98864.36;1651639;85;21129;-71
2021/09/19 07:52:15;;;;;;;2.90;2.60;;;;;;;14.23;93.60;98862.44;1646303;87;21450;-72
2021/09/19 07:54:42;;;;;;;3.17;2.65;;;;;;;14.27;92.77;98864.81;1651326;86;20986;-74
2021/09/19 07:57:09;;;;;;;3.47;3.17;;;;;;;14.28;92.35;98867.23;1654665;86;21526;-72
2021/09/19 07:59:36;;;;;;;5.47;2.47;;;;;;;14.31;92.09;98866.63;1657869;86;21014;-73
2021/09/19 08:02:04;;;;;;;3.60;3.30;;;;;;;14.36;92.55;98861.17;1647273;86;21073;-72
2021/09/19 08:04:30;;;;;;;3.50;2.87;;;;;;;14.44;92.74;98861.05;1649024;85;21204;-71
2021/09/19 08:06:56;;;;;;;4.22;3.83;;;;;;;14.49;92.06;98865.56;1634821;86;20942;-70
2021/09/19 08:09:25;;;;;;;4.50;4.10;;;;;;;14.53;92.12;98860.62;1657903;86;21569;-71
2021/09/19 08:11:53;;;;;;;4.70;3.92;;;;;;;14.61;91.89;98849.69;1658374;85;21562;-73
2021/09/19 08:14:19;;;;;;;4.80;4.35;;;;;;;14.66;91.43;98848.25;1634297;86;21110;-74
2021/09/19 08:16:46;;;;;;;6.75;4.87;;;;;;;14.74;91.18;98845.66;1657797;86;21293;-74
2021/09/19 08:19:13;;;;;;;5.67;4.30;;;;;;;14.82;91.31;98847.67;1634478;86;21006;-72
2021/09/19 08:21:40;;;;;;;8.78;6.42;;;;;;;14.91;91.02;98847.00;1657847;86;21038;-75
2021/09/19 08:24:11;;;;;;;7.97;5.83;;;;;;;14.98;90.26;98853.62;1657537;86;21069;-84
2021/09/19 08:26:39;;;;;;;8.43;6.67;;;;;;;15.02;89.98;98857.33;1633279;86;21114;-81
2021/09/19 08:29:06;;;;;;;11.10;8.40;;;;;;;15.08;89.36;98852.08;1633315;86;21272;-81
2021/09/19 08:31:33;;;;;;;8.48;7.58;;;;;;;15.16;88.79;98848.66;1657365;86;21010;-82
2021/09/19 08:33:59;;;;;;;11.63;8.08;;;;;;;15.22;88.04;98851.53;1655802;86;21014;-80
2021/09/19 08:36:26;;;;;;;9.58;8.65;;;;;;;15.21;87.70;98849.12;1647225;86;21102;-86
2021/09/19 08:38:54;;;;;;;12.40;11.05;;;;;;;15.26;88.03;98845.77;1657696;86;21548;-82
2021/09/19 08:41:22;;;;;;;10.53;9.53;;;;;;;15.31;86.87;98838.09;1657884;86;22336;-82
2021/09/19 08:43:49;;;;;;;11.93;10.82;;;;;;;15.33;87.17;98839.95;1657823;86;20998;-82
2021/09/19 08:46:17;;;;;;;13.68;9.20;;;;;;;15.40;87.04;98840.88;1656391;86;21003;-83
2021/09/19 08:48:44;;;;;;;10.32;9.33;;;;;;;15.53;86.93;98847.71;1657155;85;21014;-79
2021/09/19 08:51:10;;;;;;;10.55;9.45;;;;;;;15.62;86.37;98844.53;1658026;86;21919;-82
2021/09/19 08:53:37;;;;;;;13.40;9.90;;;;;;;15.62;86.29;98838.30;1657971;85;22554;-82
2021/09/19 08:56:04;;;;;;;11.40;10.15;;;;;;;15.65;86.36;98843.91;1634619;86;21069;-85
2021/09/19 08:58:31;;;;;;;12.13;9.68;;;;;;;15.70;86.03;98842.45;1629928;86;21005;-84
2021/09/19 09:01:02;;;;;;;11.03;10.00;;;;;;;15.70;85.75;98838.94;1636276;86;21105;-80
2021/09/19 09:03:30;;;;;;;8.58;7.78;;;;;;;15.68;85.67;98834.39;1657641;85;21080;-80
2021/09/19 09:06:02;;;;;;;7.80;7.00;;;;;;;15.73;85.53;98840.25;1657687;86;21837;-80
2021/09/19 09:08:32;;;;;;;9.38;8.55;;;;;;;15.77;85.74;98842.05;1657596;86;21036;-77
2021/09/19 09:11:01;;;;;;;11.12;10.10;;;;;;;15.83;85.63;98840.00;1657604;86;21041;-75
2021/09/19 09:13:33;;;;;;;10.13;9.13;;;;;;;15.88;85.49;98839.89;1657868;86;21006;-75
2021/09/19 09:16:06;;;;;;;11.93;10.18;;;;;;;15.94;85.29;98841.39;1657785;85;21010;-78
2021/09/19 09:18:41;;;;;;;9.45;8.60;;;;;;;16.02;84.41;98840.66;1657579;86;21182;-75
2021/09/19 09:21:28;;;;;;;10.60;9.58;;;;;;;16.14;84.39;98839.03;1634479;86;21545;-77
2021/09/19 09:23:57;;;;;;;9.95;8.85;;;;;;;16.19;82.93;98837.30;1634931;86;21080;-75
2021/09/19 09:26:37;;;;;;;10.50;9.50;;;;;;;16.18;83.12;98833.78;1657585;86;20954;-74
2021/09/19 09:29:13;;;;;;;10.00;9.10;;;;;;;16.22;83.32;98832.05;1634811;86;21005;-77
2021/09/19 09:31:47;;;;;;;11.28;10.35;;;;;;;16.26;82.94;98828.97;1657509;86;21098;-76
2021/09/19 09:34:25;;;;;;;11.83;10.75;;;;;;;16.28;82.54;98826.77;1657042;86;21085;-77
2021/09/19 09:36:58;;;;;;;11.90;10.95;;;;;;;16.30;82.25;98826.47;1658085;86;21551;-78
2021/09/19 09:39:40;;;;;;;11.73;10.75;;;;;;;16.35;82.05;98828.50;1656785;86;21020;-78
2021/09/19 09:42:18;;;;;;;10.45;9.55;;;;;;;16.42;81.64;98828.05;1657970;86;22204;-76
2021/09/19 09:44:49;;;;;;;9.65;8.90;;;;;;;16.45;81.27;98830.17;1657690;85;21096;-75
2021/09/19 09:47:19;;;;;;;10.93;9.70;;;;;;;16.42;81.52;98828.86;1657429;86;21122;-75
2021/09/19 09:49:54;;;;;;;10.65;9.75;;;;;;;16.45;81.55;98825.52;1657881;86;21021;-75
2021/09/19 09:52:24;;;;;;;8.98;8.15;;;;;;;16.54;81.58;98828.31;1634134;86;21014;-75
2021/09/19 09:54:57;;;;;;;9.00;8.13;;;;;;;16.65;81.15;98819.36;1633290;86;21022;-74
2021/09/19 09:58:00;;;;;;;10.53;9.53;;;;;;;16.74;81.26;98818.88;1649121;85;21165;-73
2021/09/19 10:00:26;;;;;;;8.13;7.37;;;;;;;16.82;80.89;98809.41;1636976;86;21520;-77
2021/09/19 10:02:54;;;;;;;10.20;9.40;;;;;;;16.97;80.25;98809.01;1631662;87;20915;-77
2021/09/19 10:05:20;;;;;;;10.10;9.20;;;;;;;17.09;79.92;98805.68;1650055;85;21504;-76
2021/09/19 10:07:48;;;;;;;9.05;8.25;;;;;;;17.23;80.07;98795.50;1653369;86;20965;-76
2021/09/19 10:10:18;;;;;;;9.23;8.38;;;;;;;17.32;78.62;98800.95;1651931;86;20975;-73
2021/09/19 10:12:47;;;;;;;14.38;9.58;;;;;;;17.34;78.50;98800.09;1658020;85;21053;-76
2021/09/19 10:15:16;;;;;;;9.50;8.68;;;;;;;17.35;78.84;98801.14;1651657;86;20951;-76
2021/09/19 10:17:43;;;;;;;8.80;8.00;;;;;;;17.37;79.26;98797.54;1651748;85;21511;-77
2021/09/19 10:20:19;;;;;;;6.92;6.20;;;;;;;17.48;79.05;98787.73;1644319;87;21509;-74
2021/09/19 10:23:00;;;;;;;7.40;6.80;;;;;;;17.60;78.90;98782.52;1651178;86;22291;-75
2021/09/19 10:25:55;;;;;;;7.85;7.12;;;;;;;17.69;78.12;98780.61;1652057;85;21736;-73
2021/09/19 10:28:34;;;;;;;6.67;6.08;;;;;;;17.78;78.20;98771.34;1651648;86;21553;-76
2021/09/19 10:31:20;;;;;;;6.30;5.70;;;;;;;17.90;77.72;98787.00;1634261;86;21016;-72
2021/09/19 10:33:53;;;;;;;9.15;5.80;;;;;;;17.94;76.31;98790.68;1651616;86;21505;-73
2021/09/19 10:36:52;;;;;;;5.33;4.83;;;;;;;18.00;76.23;98786.69;1651543;86;20975;-76
2021/09/19 10:39:23;;;;;;;5.47;4.47;;;;;;;18.09;75.26;98782.04;1651444;86;21788;-76
2021/09/19 10:42:28;;;;;;;5.58;5.08;;;;;;;18.04;74.12;98787.64;1651418;86;20967;-73
2021/09/19 10:44:55;;;;;;;6.03;4.95;;;;;;;18.05;73.97;98783.80;1643938;85;20956;-73
2021/09/19 10:47:36;;;;;;;8.05;4.65;;;;;;;18.04;73.78;98788.20;1679241;85;20992;-73
2021/09/19 10:50:31;;;;;;;5.45;5.05;;;;;;;18.03;73.83;98774.37;1650297;85;21030;-72
2021/09/19 10:53:14;;;;;;;5.90;5.05;;;;;;;18.01;72.99;98774.69;1650642;86;20982;-72
2021/09/19 10:56:04;;;;;;;5.67;5.17;;;;;;;17.96;73.23;98769.41;1647668;86;26828;-78
2021/09/19 10:58:39;;;;;;;4.75;4.35;;;;;;;17.87;73.57;98765.89;1632447;86;21584;-73
2021/09/19 11:01:15;;;;;;;5.80;4.33;;;;;;;17.85;73.60;98755.88;1651508;86;21570;-74
2021/09/19 11:03:46;;;;;;;5.05;4.65;;;;;;;17.81;73.19;98757.09;1651001;85;21085;-75
2021/09/19 11:06:34;;;;;;;4.55;4.15;;;;;;;17.76;72.79;98759.97;1650323;87;20964;-75
2021/09/19 11:09:26;;;;;;;4.97;4.47;;;;;;;17.78;72.74;98754.22;1641407;86;21028;-80
2021/09/19 11:12:14;;;;;;;4.42;4.03;;;;;;;17.80;72.91;98754.67;1631747;87;21688;-77
2021/09/19 11:15:01;;;;;;;5.70;5.20;;;;;;;17.81;74.23;98751.65;1651251;86;21577;-81
2021/09/19 11:17:33;;;;;;;5.20;4.80;;;;;;;17.67;74.70;98752.92;1651528;86;22348;-79
2021/09/19 11:20:20;;;;;;;5.95;5.35;;;;;;;17.50;74.11;98776.80;1651723;86;24007;-78
2021/09/19 11:22:53;;;;;;;7.53;6.15;;;;;;;17.46;75.23;98788.03;1643437;86;21628;-79
2021/09/19 11:25:21;;;;;;;6.20;5.70;;;;;;;17.48;74.69;98806.77;1623939;86;21085;-79
2021/09/19 11:27:51;;;;;;;6.25;5.72;;;;;;;17.46;74.84;98789.39;1643566;86;21004;-74
2021/09/19 11:30:21;;;;;;;6.92;6.30;;;;;;;17.46;74.67;98780.47;1632305;86;21133;-75
2021/09/19 11:32:48;;;;;;;6.33;5.83;;;;;;;17.46;74.67;98799.50;1651298;85;21020;-76
2021/09/19 11:35:17;;;;;;;5.20;4.80;;;;;;;17.40;73.47;98801.00;1651580;85;21534;-76
2021/09/19 11:37:45;;;;;;;5.83;5.33;;;;;;;17.33;73.63;98791.14;1651773;86;20964;-76
2021/09/19 11:40:22;;;;;;;7.22;5.22;;;;;;;17.29;73.87;98786.65;1651413;86;21060;-76